Date,TemperatureHighF,TemperatureAvgF,TemperatureLowF,DewpointHighF,DewpointAvgF,DewpointLowF,HumidityHigh,HumidityAvg,HumidityLow,PressureMaxIn,PressureMinIn,WindSpeedMaxMPH,WindSpeedAvgMPH,GustSpeedMaxMPH,PrecipitationSumIn
2013-4-1,67,41,40,50,3,-100,97,40,33,29.92,29.66,6,-234,14,0.00
2013-4-2,52,35,33,21,-10,-100,58,25,18,30.12,29.93,7,-207,19,0.00
2013-4-3,54,36,31,19,-6,-100,56,26,19,30.33,30.13,6,-178,13,0.00
2013-4-4,48,35,26,35,6,-100,86,43,27,30.38,30.07,3,-140,8,0.05
2013-4-5,67,43,38,43,3,-100,95,38,21,30.06,29.76,4,-212,10,0.08
2013-4-6,54,40,39,36,3,-100,68,33,24,30.29,29.98,4,-172,11,0.00
2013-4-7,60,43,41,45,17,-100,85,56,56,30.26,29.96,5,-175,10,0.00
2013-4-8,74,53,48,53,22,-100,86,47,38,30.03,29.92,3,-173,7,0.00
2013-4-9,86,62,57,54,32,-100,80,45,28,30.02,29.89,3,-126,9,0.00
2013-4-10,91,65,57,58,32,-100,80,43,26,29.91,29.74,5,-138,8,0.00
2013-4-11,77,51,67,57,12,-100,70,42,48,29.83,29.77,1,-285,5,0.00
2013-4-12,64,42,53,63,13,-100,97,68,89,29.77,29.55,1,0,5,0.63
2013-4-13,64,46,45,52,15,-100,96,50,40,29.90,29.68,5,-203,9,0.00
2013-4-14,68,45,44,48,8,-100,95,43,27,30.09,29.90,4,-236,11,0.00
2013-4-15,63,42,54,51,8,-100,77,51,61,30.26,30.08,4,-272,6,0.00
2013-4-16,70,46,50,57,14,-100,92,55,62,30.28,30.09,5,-256,12,0.00
2013-4-17,77,51,57,64,21,-100,94,56,57,30.20,30.07,4,-228,11,0.00
2013-4-18,73,45,58,63,10,-100,95,55,62,30.20,30.02,4,-304,11,0.06
2013-4-19,72,51,61,64,23,-100,93,62,72,29.91,29.57,4,2,10,0.01
2013-4-20,64,47,48,37,11,-100,63,34,25,30.28,29.83,5,1,14,0.00
2013-4-21,56,40,42,36,4,-100,67,37,33,30.56,30.28,3,-194,8,0.00
2013-4-22,56,40,43,41,7,-100,76,47,52,30.55,30.37,4,-228,8,0.00
2013-4-23,63,40,46,47,5,-100,88,49,52,30.37,30.10,4,-265,9,0.00
2013-4-24,67,47,48,57,17,-100,92,57,62,30.10,29.77,3,-233,14,0.00
2013-4-25,66,44,46,55,6,-100,81,38,28,30.25,29.87,4,-235,11,0.00
2013-4-26,69,45,43,47,7,-100,88,39,27,30.40,30.25,5,-232,8,0.00
2013-4-27,70,47,42,50,7,-100,92,37,26,30.39,30.25,4,-228,8,0.00
2013-4-28,67,47,45,50,10,-100,89,39,28,30.26,30.12,3,-221,9,0.00
2013-4-29,59,40,55,57,10,-100,96,65,60,30.14,30.03,2,-291,9,0.18
2013-4-30,59,41,54,57,9,-100,96,62,71,30.24,30.05,2,-291,7,0.04